Time;durP1;ratioP1;P1;durP2;ratioP2;P2;SDS_P1;SDS_P2;PMS_P1;PMS_P2;Temp;Humidity;BMP_temperature;BMP_pressure;BME280_temperature;BME280_humidity;BME280_pressure;Samples;Min_cycle;Max_cycle;Signal;HPM_P1;HPM_P2
2022/08/04 00:02:19;;;;;;;4.20;2.05;;;;;20.70;96384.00;;;;8347810;28;20683;-72
2022/08/04 00:06:41;;;;;;;2.40;2.20;;;;;20.70;96384.00;;;;8344654;28;20763;-71
2022/08/04 00:10:49;;;;;;;2.53;2.33;;;;;20.60;96389.00;;;;8348050;28;20223;-71
2022/08/04 00:14:57;;;;;;;3.70;2.17;;;;;20.60;96387.00;;;;8348785;28;20237;-72
2022/08/04 00:19:03;;;;;;;4.00;2.40;;;;;20.70;96386.00;;;;8349406;28;20230;-71
2022/08/04 00:23:09;;;;;;;2.65;2.10;;;;;20.80;96384.00;;;;8349634;28;20239;-71
2022/08/04 00:27:13;;;;;;;3.28;2.30;;;;;20.80;96387.00;;;;8343606;28;20228;-71
2022/08/04 00:31:16;;;;;;;3.03;2.30;;;;;20.80;96383.00;;;;8347513;28;20234;-71
2022/08/04 00:35:36;;;;;;;4.70;2.53;;;;;20.80;96384.00;;;;8345684;28;20678;-72
2022/08/04 00:39:42;;;;;;;5.18;2.58;;;;;20.70;96389.00;;;;8348907;28;20221;-71
2022/08/04 00:44:02;;;;;;;2.88;2.20;;;;;20.60;96389.00;;;;8347640;28;20221;-70
2022/08/04 00:48:18;;;;;;;2.60;2.40;;;;;20.60;96395.00;;;;8340953;28;20244;-70
2022/08/04 00:52:41;;;;;;;3.03;2.35;;;;;20.60;96392.00;;;;8345864;28;20225;-70
2022/08/04 00:57:15;;;;;;;2.47;2.28;;;;;20.40;96392.00;;;;8346694;28;20216;-70
2022/08/04 01:01:52;;;;;;;2.80;2.40;;;;;20.40;96395.00;;;;8345670;28;20260;-72
2022/08/04 01:06:06;;;;;;;4.90;2.30;;;;;20.30;96395.00;;;;8343389;28;20249;-71
2022/08/04 01:10:17;;;;;;;3.90;2.30;;;;;20.10;96397.00;;;;8346931;28;20225;-71
2022/08/04 01:14:42;;;;;;;3.20;2.47;;;;;19.90;96389.00;;;;8349264;28;20227;-71
2022/08/04 01:18:55;;;;;;;3.88;2.40;;;;;19.80;96389.00;;;;8344545;28;20223;-71
2022/08/04 01:23:42;;;;;;;2.88;2.60;;;;;19.70;96386.00;;;;8348556;28;20237;-70
2022/08/04 01:28:15;;;;;;;4.47;2.80;;;;;19.70;96381.00;;;;8342793;28;20227;-71
2022/08/04 01:32:27;;;;;;;2.72;2.53;;;;;19.60;96382.00;;;;8338795;28;20220;-72
2022/08/04 01:36:34;;;;;;;3.15;2.28;;;;;19.60;96377.00;;;;8340152;28;20237;-71
2022/08/04 01:40:39;;;;;;;3.83;2.90;;;;;19.60;96382.00;;;;8346066;28;20221;-72
2022/08/04 01:44:42;;;;;;;4.50;2.75;;;;;19.50;96380.00;;;;8345829;28;20224;-71
2022/08/04 01:48:52;;;;;;;2.70;2.40;;;;;19.50;96387.00;;;;8344105;28;20228;-72
2022/08/04 01:52:56;;;;;;;5.53;2.78;;;;;19.40;96380.00;;;;8347220;28;20240;-71
2022/08/04 01:57:01;;;;;;;4.75;2.90;;;;;19.40;96377.00;;;;8348388;28;20319;-71
2022/08/04 02:01:25;;;;;;;3.05;2.58;;;;;19.30;96376.00;;;;8344357;28;20232;-71
2022/08/04 02:05:29;;;;;;;3.85;3.03;;;;;19.20;96372.00;;;;8342342;28;20229;-72
2022/08/04 02:10:03;;;;;;;5.07;3.33;;;;;19.00;96367.00;;;;8341895;28;20220;-72
2022/08/04 02:14:39;;;;;;;4.93;3.00;;;;;18.90;96376.00;;;;8343926;28;20227;-70
2022/08/04 02:18:45;;;;;;;3.67;2.95;;;;;18.90;96375.00;;;;8347102;28;20727;-72
2022/08/04 02:22:57;;;;;;;2.78;2.58;;;;;18.90;96377.00;;;;8341279;28;20571;-71
2022/08/04 02:27:04;;;;;;;2.70;2.50;;;;;18.90;96374.00;;;;8342893;28;20316;-72
2022/08/04 02:31:27;;;;;;;3.33;2.70;;;;;18.80;96366.00;;;;8338138;28;20669;-71
2022/08/04 02:35:36;;;;;;;3.15;2.85;;;;;18.80;96374.00;;;;8339714;28;20232;-71
2022/08/04 02:39:43;;;;;;;2.90;2.70;;;;;18.70;96368.00;;;;8344359;28;20574;-72
2022/08/04 02:43:55;;;;;;;2.80;2.60;;;;;18.60;96365.00;;;;8344249;28;20217;-71
2022/08/04 02:48:03;;;;;;;4.55;3.10;;;;;18.60;96363.00;;;;8345023;28;20231;-73
2022/08/04 02:52:26;;;;;;;3.40;2.92;;;;;18.60;96359.00;;;;8343235;28;20220;-73
2022/08/04 02:56:33;;;;;;;6.18;3.38;;;;;18.50;96351.00;;;;8334248;28;20315;-72
2022/08/04 03:00:39;;;;;;;3.10;2.80;;;;;18.40;96351.00;;;;8343011;28;20220;-73
2022/08/04 03:04:51;;;;;;;3.50;3.00;;;;;18.50;96349.00;;;;8374394;22;20289;-73
2022/08/04 03:09:21;;;;;;;5.18;2.92;;;;;18.40;96348.00;;;;8356360;28;20197;-74
2022/08/04 03:13:57;;;;;;;4.88;3.10;;;;;18.40;96347.00;;;;8356135;28;20280;-76
2022/08/04 03:18:32;;;;;;;3.78;3.10;;;;;18.30;96344.00;;;;8357251;28;20211;-75
2022/08/04 03:23:10;;;;;;;4.78;3.15;;;;;18.10;96341.00;;;;8365615;28;20232;-75
2022/08/04 03:27:44;;;;;;;5.40;3.45;;;;;18.00;96349.00;;;;8369955;28;20279;-72
2022/08/04 03:32:15;;;;;;;6.20;3.08;;;;;18.00;96348.00;;;;8356682;28;20204;-72
2022/08/04 03:36:54;;;;;;;3.78;3.38;;;;;18.00;96348.00;;;;8354978;28;20272;-71
2022/08/04 03:41:27;;;;;;;3.63;3.20;;;;;17.90;96348.00;;;;8348899;28;20224;-73
2022/08/04 03:46:19;;;;;;;3.50;3.20;;;;;17.90;96343.00;;;;8363555;28;20204;-75
2022/08/04 03:55:57;;;;;;;3.00;2.80;;;;;18.00;96358.00;;;;8364247;28;20310;-73
2022/08/04 04:00:07;;;;;;;7.18;4.50;;;;;17.90;96359.00;;;;8357039;28;20673;-72
2022/08/04 04:04:50;;;;;;;5.80;3.50;;;;;17.90;96361.00;;;;8341335;28;20229;-72
2022/08/04 04:09:33;;;;;;;11.38;4.10;;;;;17.80;96356.00;;;;8337058;28;20240;-72
2022/08/04 04:14:23;;;;;;;6.90;3.10;;;;;17.90;96345.00;;;;8344928;28;20567;-73
2022/08/04 04:18:51;;;;;;;4.10;3.80;;;;;18.00;96344.00;;;;8325268;28;20793;-74
2022/08/04 04:23:06;;;;;;;3.72;3.40;;;;;18.00;96345.00;;;;8338262;28;20236;-72
2022/08/04 04:27:22;;;;;;;5.88;3.67;;;;;18.10;96346.00;;;;8335850;28;20224;-72
2022/08/04 04:31:39;;;;;;;3.78;2.90;;;;;18.20;96345.00;;;;8336157;28;20251;-72
2022/08/04 04:35:55;;;;;;;5.75;3.38;;;;;18.30;96354.00;;;;8338978;28;20231;-72
2022/08/04 04:40:08;;;;;;;8.57;3.63;;;;;18.50;96356.00;;;;8339783;28;20224;-72
2022/08/04 04:44:30;;;;;;;5.15;3.10;;;;;18.50;96353.00;;;;8336365;28;20241;-69
2022/08/04 04:48:42;;;;;;;6.28;3.33;;;;;18.50;96356.00;;;;8333140;28;20237;-70
2022/08/04 04:52:53;;;;;;;4.40;2.90;;;;;18.70;96360.00;;;;8331803;28;20232;-70
2022/08/04 04:57:04;;;;;;;61.33;5.25;;;;;18.90;96359.00;;;;8331405;28;20307;-70
2022/08/04 05:01:30;;;;;;;32.63;4.50;;;;;19.00;96362.00;;;;8330498;28;20232;-69
2022/08/04 05:06:00;;;;;;;11.05;3.50;;;;;19.20;96364.00;;;;8342497;28;20216;-71
2022/08/04 05:10:18;;;;;;;3.70;3.25;;;;;19.40;96365.00;;;;8349812;28;20232;-71
2022/08/04 05:14:27;;;;;;;3.95;3.28;;;;;19.60;96368.00;;;;8335225;28;20231;-70
2022/08/04 05:18:44;;;;;;;6.30;3.22;;;;;19.90;96374.00;;;;8346781;28;20224;-69
2022/08/04 05:22:52;;;;;;;7.30;3.28;;;;;20.20;96371.00;;;;8344143;28;20252;-70
2022/08/04 05:27:01;;;;;;;4.00;3.60;;;;;20.50;96373.00;;;;8344601;28;20223;-71
2022/08/04 05:31:11;;;;;;;5.68;2.88;;;;;20.70;96378.00;;;;8345819;28;20216;-69
2022/08/04 05:35:21;;;;;;;4.53;3.28;;;;;20.90;96383.00;;;;8345111;28;20304;-70
2022/08/04 05:39:47;;;;;;;4.32;3.10;;;;;21.30;96374.00;;;;8338194;28;20228;-69
2022/08/04 05:43:53;;;;;;;5.82;3.42;;;;;21.70;96375.00;;;;8336245;28;20237;-70
2022/08/04 05:47:56;;;;;;;3.78;3.20;;;;;21.90;96373.00;;;;8339675;28;20236;-69
2022/08/04 05:52:02;;;;;;;9.90;3.45;;;;;22.20;96376.00;;;;8332956;28;20319;-69
2022/08/04 05:56:06;;;;;;;5.10;3.05;;;;;22.50;96370.00;;;;8336166;28;20221;-70
2022/08/04 06:00:13;;;;;;;3.58;3.28;;;;;22.80;96383.00;;;;8335391;28;20274;-69
2022/08/04 06:04:39;;;;;;;5.43;2.83;;;;;23.10;96375.00;;;;8342765;28;20303;-69
2022/08/04 06:08:43;;;;;;;4.28;2.95;;;;;23.50;96386.00;;;;8338682;28;20701;-70
2022/08/04 06:12:52;;;;;;;3.33;2.97;;;;;23.90;96377.00;;;;8342601;28;20311;-69
2022/08/04 06:16:57;;;;;;;9.60;2.90;;;;;24.30;96379.00;;;;8335267;28;20225;-70
2022/08/04 06:21:03;;;;;;;5.00;3.10;;;;;24.70;96379.00;;;;8335521;28;20229;-68
2022/08/04 06:25:20;;;;;;;4.28;3.60;;;;;25.00;96373.00;;;;8332106;28;20315;-69
2022/08/04 06:29:33;;;;;;;4.63;2.75;;;;;25.30;96385.00;;;;8337289;28;20310;-69
2022/08/04 06:33:38;;;;;;;3.90;2.90;;;;;25.80;96384.00;;;;8331506;28;20264;-70
2022/08/04 06:37:57;;;;;;;6.03;2.90;;;;;26.40;96382.00;;;;8339656;28;20233;-69
2022/08/04 06:42:05;;;;;;;2.90;2.38;;;;;27.00;96382.00;;;;8336532;28;20224;-69
2022/08/04 06:46:25;;;;;;;5.05;3.10;;;;;27.70;96392.00;;;;8334659;28;20224;-70
2022/08/04 06:50:30;;;;;;;3.67;2.50;;;;;28.20;96389.00;;;;8330550;28;20251;-68
2022/08/04 06:54:56;;;;;;;4.50;2.72;;;;;28.90;96389.00;;;;8325668;28;20229;-70
2022/08/04 06:59:02;;;;;;;2.85;2.58;;;;;29.40;96392.00;;;;8341973;28;20235;-69
2022/08/04 07:03:06;;;;;;;4.63;2.58;;;;;30.00;96397.00;;;;8321586;28;20233;-69
2022/08/04 07:07:12;;;;;;;2.70;2.50;;;;;30.40;96398.00;;;;8349016;28;20239;-68
2022/08/04 07:11:16;;;;;;;2.72;2.40;;;;;30.90;96402.00;;;;8345449;28;20228;-69
2022/08/04 07:15:21;;;;;;;3.75;2.33;;;;;31.40;96400.00;;;;8346043;28;20228;-68
2022/08/04 07:19:24;;;;;;;2.78;2.58;;;;;31.90;96398.00;;;;8349316;28;20223;-68
2022/08/04 07:23:29;;;;;;;2.83;2.50;;;;;32.30;96401.00;;;;8336041;28;20714;-69
2022/08/04 07:27:32;;;;;;;2.47;2.38;;;;;32.70;96400.00;;;;8340937;28;20258;-68
2022/08/04 07:31:51;;;;;;;6.90;2.83;;;;;33.40;96396.00;;;;8345269;28;20247;-68
2022/08/04 07:35:56;;;;;;;2.60;2.40;;;;;33.90;96403.00;;;;8340173;28;20694;-69
2022/08/04 07:40:13;;;;;;;3.67;2.63;;;;;34.30;96400.00;;;;8340302;28;20216;-70
2022/08/04 07:44:16;;;;;;;2.40;2.22;;;;;34.50;96404.00;;;;8333078;28;20241;-70
2022/08/04 07:48:21;;;;;;;4.72;2.40;;;;;34.70;96409.00;;;;8344091;28;20256;-71
2022/08/04 07:52:26;;;;;;;2.50;2.40;;;;;35.00;96403.00;;;;8337004;28;20232;-69
2022/08/04 07:56:31;;;;;;;2.45;2.10;;;;;35.00;96402.00;;;;8338246;28;20247;-69
2022/08/04 08:00:34;;;;;;;2.50;2.38;;;;;35.00;96399.00;;;;8341169;28;20225;-69
2022/08/04 08:04:38;;;;;;;2.83;2.50;;;;;35.10;96404.00;;;;8338409;28;20239;-69
2022/08/04 08:08:41;;;;;;;2.70;2.50;;;;;35.20;96403.00;;;;8337869;28;20278;-70
2022/08/04 08:12:46;;;;;;;2.60;2.40;;;;;35.60;96396.00;;;;8334241;28;20229;-71
2022/08/04 08:16:54;;;;;;;3.97;2.60;;;;;36.20;96400.00;;;;8331580;28;20232;-69
2022/08/04 08:20:57;;;;;;;3.65;2.30;;;;;36.50;96397.00;;;;8343587;28;20609;-68
2022/08/04 08:25:01;;;;;;;3.72;2.50;;;;;36.90;96397.00;;;;8349184;28;20298;-70
2022/08/04 08:29:05;;;;;;;2.83;2.63;;;;;37.00;96397.00;;;;8332719;28;20219;-71
2022/08/04 08:33:12;;;;;;;2.53;2.33;;;;;37.10;96396.00;;;;8333081;28;20255;-70
2022/08/04 08:37:25;;;;;;;4.18;2.55;;;;;37.20;96398.00;;;;8340119;28;20220;-70
2022/08/04 08:42:06;;;;;;;3.78;2.20;;;;;37.30;96398.00;;;;8334780;28;20309;-70
2022/08/04 08:46:43;;;;;;;2.42;2.22;;;;;37.40;96396.00;;;;8341671;28;20238;-69
2022/08/04 08:51:23;;;;;;;2.20;2.10;;;;;37.40;96403.00;;;;8351064;28;20225;-69
2022/08/04 08:55:37;;;;;;;4.63;2.40;;;;;37.40;96406.00;;;;8340834;28;20236;-69
2022/08/04 08:59:53;;;;;;;4.30;2.50;;;;;37.50;96411.00;;;;8345538;28;20225;-69
2022/08/04 09:04:30;;;;;;;3.03;2.70;;;;;37.40;96403.00;;;;8346392;28;20867;-72
2022/08/04 09:09:10;;;;;;;2.60;2.40;;;;;37.80;96406.00;;;;8348593;28;20229;-71
2022/08/04 09:13:20;;;;;;;3.10;2.38;;;;;38.40;96403.00;;;;8356307;28;20231;-70
2022/08/04 09:17:29;;;;;;;2.63;2.42;;;;;38.50;96409.00;;;;8354766;28;20708;-70
2022/08/04 09:21:39;;;;;;;4.78;2.30;;;;;38.70;96410.00;;;;8344242;28;20233;-72
2022/08/04 09:25:53;;;;;;;2.28;2.15;;;;;38.90;96404.00;;;;8342816;28;20263;-70
2022/08/04 09:30:04;;;;;;;2.60;2.50;;;;;39.20;96399.00;;;;8333862;28;20220;-72
2022/08/04 09:34:13;;;;;;;3.50;2.22;;;;;39.40;96404.00;;;;8338352;28;20271;-70
2022/08/04 09:38:21;;;;;;;7.63;2.50;;;;;39.30;96407.00;;;;8322351;28;20339;-72
2022/08/04 09:42:37;;;;;;;4.65;2.40;;;;;39.50;96406.00;;;;8336983;28;20661;-71
2022/08/04 09:46:50;;;;;;;4.72;2.65;;;;;39.70;96406.00;;;;8337282;28;20231;-70
2022/08/04 09:50:58;;;;;;;2.50;2.33;;;;;39.90;96394.00;;;;8318253;28;20235;-75
2022/08/04 09:55:09;;;;;;;1.73;1.73;;;;;40.20;96397.00;;;;8288293;28;20264;-72
2022/08/04 09:59:22;;;;;;;2.95;2.10;;;;;40.20;96393.00;;;;8327225;28;20236;-73
2022/08/04 10:03:30;;;;;;;2.35;1.80;;;;;39.90;96387.00;;;;8331797;28;20223;-74
2022/08/04 10:07:53;;;;;;;2.03;2.00;;;;;40.20;96388.00;;;;8315452;28;20807;-74
2022/08/04 10:12:30;;;;;;;2.10;1.88;;;;;40.70;96389.00;;;;8339546;28;20275;-72
2022/08/04 10:16:46;;;;;;;2.10;2.00;;;;;40.80;96386.00;;;;8337736;28;20235;-76
2022/08/04 10:20:59;;;;;;;2.00;1.90;;;;;40.40;96381.00;;;;8334083;28;20634;-77
2022/08/04 10:25:37;;;;;;;2.28;1.60;;;;;40.00;96368.00;;;;8333957;28;20224;-75
2022/08/04 10:30:10;;;;;;;5.45;1.80;;;;;40.70;96365.00;;;;8335041;28;20279;-75
2022/08/04 10:34:20;;;;;;;4.47;1.98;;;;;41.00;96367.00;;;;8337155;28;20761;-73
2022/08/04 10:38:31;;;;;;;4.10;2.13;;;;;41.20;96370.00;;;;8330267;28;20948;-75
2022/08/04 10:42:41;;;;;;;2.38;1.95;;;;;41.60;96352.00;;;;8338965;28;20224;-76
2022/08/04 10:46:51;;;;;;;2.08;1.98;;;;;41.30;96364.00;;;;8325617;28;20230;-76
2022/08/04 10:51:06;;;;;;;2.08;1.98;;;;;41.60;96368.00;;;;8335924;28;20228;-75
2022/08/04 10:55:16;;;;;;;5.60;2.13;;;;;41.70;96364.00;;;;8336728;28;20732;-75
2022/08/04 10:59:27;;;;;;;3.58;1.55;;;;;41.80;96358.00;;;;8329594;28;20216;-75
2022/08/04 11:03:39;;;;;;;3.08;2.15;;;;;41.90;96355.00;;;;8339653;28;20296;-79
2022/08/04 11:07:47;;;;;;;2.42;2.20;;;;;41.90;96359.00;;;;8333625;28;20696;-73
2022/08/04 11:11:54;;;;;;;1.70;1.60;;;;;41.90;96358.00;;;;8339723;28;20282;-74
2022/08/04 11:16:11;;;;;;;1.88;1.77;;;;;42.10;96353.00;;;;8335455;28;20229;-77
2022/08/04 11:20:21;;;;;;;2.60;2.00;;;;;42.20;96354.00;;;;8333885;28;20232;-73
2022/08/04 11:24:45;;;;;;;6.50;1.90;;;;;42.10;96346.00;;;;8339522;28;20320;-74
2022/08/04 11:28:54;;;;;;;3.17;1.92;;;;;42.10;96341.00;;;;8350541;28;20983;-72
2022/08/04 11:33:16;;;;;;;3.05;2.28;;;;;42.60;96339.00;;;;8332038;28;20243;-71
2022/08/04 11:37:25;;;;;;;5.15;2.40;;;;;42.60;96343.00;;;;8332761;28;20228;-70
2022/08/04 11:41:40;;;;;;;2.05;1.95;;;;;43.10;96329.00;;;;8343046;28;20756;-71
2022/08/04 11:45:51;;;;;;;2.10;1.90;;;;;43.40;96343.00;;;;8344538;28;20265;-71
2022/08/04 11:50:03;;;;;;;2.55;1.90;;;;;43.30;96338.00;;;;8337953;28;20974;-69
2022/08/04 11:54:11;;;;;;;3.10;1.98;;;;;42.90;96340.00;;;;8335974;28;20275;-70
2022/08/04 11:58:15;;;;;;;5.80;1.90;;;;;42.40;96338.00;;;;8331132;28;20235;-70
2022/08/04 12:02:38;;;;;;;2.05;1.95;;;;;42.60;96331.00;;;;8350654;28;20637;-69
2022/08/04 12:06:48;;;;;;;2.05;1.95;;;;;42.70;96327.00;;;;8342084;28;21102;-70
2022/08/04 12:11:15;;;;;;;3.53;2.10;;;;;42.00;96329.00;;;;8343316;28;20221;-69
2022/08/04 12:15:26;;;;;;;1.85;1.75;;;;;42.00;96330.00;;;;8346366;28;20231;-70
2022/08/04 12:19:35;;;;;;;4.03;1.90;;;;;41.90;96330.00;;;;8339570;28;20787;-70
2022/08/04 12:24:03;;;;;;;1.80;1.70;;;;;41.70;96325.00;;;;8344022;28;20232;-69
2022/08/04 12:28:16;;;;;;;2.05;1.95;;;;;41.30;96322.00;;;;8329864;28;20247;-68
2022/08/04 12:32:26;;;;;;;2.65;1.92;;;;;40.60;96313.00;;;;8327245;28;20232;-68
2022/08/04 12:36:35;;;;;;;4.20;2.15;;;;;40.00;96315.00;;;;8328534;28;20231;-69
2022/08/04 12:40:44;;;;;;;4.45;2.13;;;;;39.60;96315.00;;;;8339291;28;20233;-68
2022/08/04 12:44:52;;;;;;;8.05;2.10;;;;;39.10;96315.00;;;;8329760;28;20255;-68
2022/08/04 12:49:01;;;;;;;2.00;1.90;;;;;38.60;96308.00;;;;8331056;28;20246;-69
2022/08/04 12:53:13;;;;;;;2.58;1.90;;;;;38.40;96303.00;;;;8331013;28;22902;-70
2022/08/04 12:57:35;;;;;;;2.70;1.83;;;;;38.40;96295.00;;;;8328855;28;20689;-70
2022/08/04 13:01:40;;;;;;;2.67;2.10;;;;;38.70;96298.00;;;;8331429;28;20590;-69
2022/08/04 13:06:07;;;;;;;2.15;2.05;;;;;38.50;96290.00;;;;8330071;28;20228;-69
2022/08/04 13:10:12;;;;;;;2.83;2.35;;;;;38.30;96288.00;;;;8332142;28;20228;-69
2022/08/04 13:14:21;;;;;;;1.98;1.88;;;;;37.90;96282.00;;;;8324490;28;20700;-69
2022/08/04 13:18:32;;;;;;;2.33;1.98;;;;;37.80;96275.00;;;;8332028;28;20236;-69
2022/08/04 13:22:37;;;;;;;2.58;2.03;;;;;38.00;96276.00;;;;8343101;28;20235;-69
2022/08/04 13:26:50;;;;;;;2.20;2.00;;;;;38.10;96265.00;;;;8349360;28;20762;-69
2022/08/04 13:31:00;;;;;;;3.75;2.10;;;;;38.40;96267.00;;;;8339898;28;20729;-69
2022/08/04 13:35:09;;;;;;;2.13;2.03;;;;;39.10;96269.00;;;;8337353;28;20220;-71
2022/08/04 13:39:18;;;;;;;2.17;1.98;;;;;39.90;96265.00;;;;8336447;28;20255;-70
2022/08/04 13:43:27;;;;;;;2.50;2.28;;;;;40.60;96252.00;;;;8335848;28;20237;-71
2022/08/04 13:47:52;;;;;;;2.10;2.00;;;;;40.70;96251.00;;;;8344873;28;20228;-72
2022/08/04 13:51:57;;;;;;;2.30;2.08;;;;;40.70;96259.00;;;;8346452;28;20273;-72
2022/08/04 13:56:05;;;;;;;2.40;2.05;;;;;40.90;96253.00;;;;8349172;28;20752;-71
2022/08/04 14:00:10;;;;;;;4.13;2.05;;;;;41.10;96248.00;;;;8333211;28;20228;-72
2022/08/04 14:04:20;;;;;;;2.00;1.90;;;;;41.60;96254.00;;;;8342558;28;20661;-73
2022/08/04 14:08:27;;;;;;;5.28;1.98;;;;;41.90;96251.00;;;;8340552;28;20342;-73
2022/08/04 14:12:35;;;;;;;2.00;1.90;;;;;41.80;96245.00;;;;8333270;28;20229;-74
2022/08/04 14:16:59;;;;;;;2.72;2.00;;;;;41.40;96247.00;;;;8344322;28;20237;-72
2022/08/04 14:21:06;;;;;;;2.45;2.00;;;;;41.40;96241.00;;;;8350434;28;20235;-71
2022/08/04 14:25:12;;;;;;;3.03;2.25;;;;;42.00;96239.00;;;;8337117;28;20268;-73
2022/08/04 14:29:20;;;;;;;2.33;2.10;;;;;42.50;96234.00;;;;8336615;28;20248;-71
2022/08/04 14:33:37;;;;;;;2.00;1.90;;;;;42.60;96220.00;;;;8331275;28;20237;-72
2022/08/04 14:38:02;;;;;;;1.77;1.77;;;;;42.80;96221.00;;;;8333873;28;20228;-72
2022/08/04 14:42:06;;;;;;;3.13;1.75;;;;;43.20;96217.00;;;;8325612;28;20994;-72
2022/08/04 14:46:12;;;;;;;1.98;1.88;;;;;43.20;96214.00;;;;8301894;28;20259;-70
2022/08/04 14:50:17;;;;;;;3.75;1.90;;;;;43.00;96219.00;;;;8322072;28;20221;-72
2022/08/04 14:54:27;;;;;;;1.98;1.80;;;;;42.80;96215.00;;;;8325510;28;20699;-72
2022/08/04 14:58:32;;;;;;;8.75;1.90;;;;;42.80;96216.00;;;;8323719;28;20304;-73
2022/08/04 15:02:43;;;;;;;2.10;2.00;;;;;43.10;96209.00;;;;8332586;28;20263;-72
2022/08/04 15:06:47;;;;;;;1.70;1.60;;;;;43.40;96211.00;;;;8327350;28;20236;-72
2022/08/04 15:10:51;;;;;;;2.80;1.98;;;;;43.70;96209.00;;;;8328113;28;20225;-70
2022/08/04 15:14:56;;;;;;;3.17;1.88;;;;;43.80;96203.00;;;;8337267;28;20227;-73
2022/08/04 15:19:21;;;;;;;6.82;2.55;;;;;43.70;96205.00;;;;8340013;28;20224;-72
2022/08/04 15:23:24;;;;;;;2.03;1.92;;;;;43.40;96209.00;;;;8346100;28;20592;-72
2022/08/04 15:27:42;;;;;;;2.78;2.00;;;;;43.30;96207.00;;;;8334378;28;20243;-71
2022/08/04 15:31:47;;;;;;;7.45;2.35;;;;;43.10;96202.00;;;;8336511;28;20243;-73
2022/08/04 15:36:15;;;;;;;2.50;1.90;;;;;42.90;96201.00;;;;8334072;28;20314;-75
2022/08/04 15:40:22;;;;;;;7.43;2.10;;;;;42.90;96196.00;;;;8339016;28;20303;-75
2022/08/04 15:45:16;;;;;;;2.05;1.60;;;;;43.00;96195.00;;;;8330704;28;20310;-73
2022/08/04 15:49:21;;;;;;;3.38;1.95;;;;;43.10;96187.00;;;;8335012;28;20221;-73
2022/08/04 15:53:27;;;;;;;4.60;1.92;;;;;43.00;96190.00;;;;8328178;28;20232;-73
2022/08/04 15:58:02;;;;;;;2.80;1.95;;;;;43.00;96192.00;;;;8332582;28;20224;-72
2022/08/04 16:02:36;;;;;;;1.65;1.65;;;;;42.90;96182.00;;;;8335941;28;20232;-73
2022/08/04 16:06:44;;;;;;;2.40;1.92;;;;;42.70;96181.00;;;;8324737;28;20367;-73
2022/08/04 16:10:50;;;;;;;3.08;1.80;;;;;42.70;96178.00;;;;8331488;28;20223;-74
2022/08/04 16:14:53;;;;;;;2.80;1.88;;;;;42.60;96180.00;;;;8328358;28;20664;-74
2022/08/04 16:19:04;;;;;;;4.97;2.10;;;;;42.30;96177.00;;;;8329773;28;20307;-74
2022/08/04 16:23:28;;;;;;;3.03;2.15;;;;;42.10;96171.00;;;;8329364;28;20231;-74
2022/08/04 16:27:53;;;;;;;3.05;1.85;;;;;42.20;96176.00;;;;8329288;28;20220;-74
2022/08/04 16:32:20;;;;;;;2.03;1.90;;;;;42.00;96178.00;;;;8329500;28;20216;-73
2022/08/04 16:36:56;;;;;;;3.97;2.10;;;;;41.60;96175.00;;;;8332832;28;20828;-73
2022/08/04 16:41:01;;;;;;;1.90;1.80;;;;;41.60;96175.00;;;;8336173;28;20319;-73
2022/08/04 16:45:12;;;;;;;2.28;2.03;;;;;41.80;96186.00;;;;8337946;28;20727;-73
2022/08/04 16:49:16;;;;;;;5.03;2.13;;;;;41.80;96175.00;;;;8316867;28;20228;-73
2022/08/04 16:53:21;;;;;;;2.38;2.28;;;;;42.00;96174.00;;;;8346831;28;20228;-73
2022/08/04 16:57:46;;;;;;;2.80;1.95;;;;;42.10;96176.00;;;;8341761;28;20247;-74
2022/08/04 17:01:53;;;;;;;2.00;1.90;;;;;42.30;96177.00;;;;8340943;28;20644;-73
2022/08/04 17:06:09;;;;;;;3.17;1.80;;;;;42.40;96174.00;;;;8341213;28;20788;-73
2022/08/04 17:10:12;;;;;;;2.83;2.10;;;;;42.50;96166.00;;;;8337870;28;20228;-73
2022/08/04 17:14:21;;;;;;;1.80;1.80;;;;;42.60;96165.00;;;;8341472;28;20339;-73
2022/08/04 17:18:27;;;;;;;7.38;1.90;;;;;42.70;96162.00;;;;8337196;28;20241;-73
2022/08/04 17:22:31;;;;;;;2.65;1.95;;;;;42.70;96165.00;;;;8331507;28;20217;-73
2022/08/04 17:26:36;;;;;;;1.88;1.77;;;;;42.90;96157.00;;;;8332772;28;20228;-74
2022/08/04 17:30:43;;;;;;;7.38;2.15;;;;;42.70;96161.00;;;;8339489;28;20367;-74
2022/08/04 17:34:57;;;;;;;1.88;1.65;;;;;42.50;96155.00;;;;8329290;28;20235;-74
2022/08/04 17:39:03;;;;;;;1.98;1.88;;;;;42.30;96157.00;;;;8341554;28;20216;-73
2022/08/04 17:43:07;;;;;;;1.90;1.80;;;;;42.10;96162.00;;;;8338245;28;20847;-74
2022/08/04 17:47:30;;;;;;;1.92;1.80;;;;;41.70;96155.00;;;;8333204;28;20229;-72
2022/08/04 17:51:47;;;;;;;2.95;1.90;;;;;41.50;96158.00;;;;8343866;28;20279;-73
2022/08/04 17:56:34;;;;;;;2.45;1.90;;;;;40.80;96162.00;;;;8349702;28;20769;-73
2022/08/04 18:00:59;;;;;;;3.33;2.20;;;;;39.70;96152.00;;;;8341549;28;20323;-73
2022/08/04 18:05:28;;;;;;;2.20;2.00;;;;;38.50;96150.00;;;;8338091;28;20236;-73
2022/08/04 18:09:55;;;;;;;2.05;1.88;;;;;37.50;96155.00;;;;8340246;28;20221;-73
2022/08/04 18:14:19;;;;;;;2.10;2.00;;;;;36.60;96159.00;;;;8349905;28;20231;-72
2022/08/04 18:18:31;;;;;;;4.60;2.10;;;;;35.90;96156.00;;;;8342169;28;20224;-72
2022/08/04 18:22:34;;;;;;;4.13;2.00;;;;;35.30;96157.00;;;;8326227;28;20270;-72
2022/08/04 18:26:39;;;;;;;4.97;2.38;;;;;34.80;96156.00;;;;8340805;28;20240;-73
2022/08/04 18:30:42;;;;;;;3.30;2.25;;;;;34.40;96152.00;;;;8332779;28;20328;-67
2022/08/04 18:34:58;;;;;;;7.28;2.20;;;;;34.00;96157.00;;;;8331227;28;20885;-69
2022/08/04 18:39:09;;;;;;;2.20;2.08;;;;;33.60;96156.00;;;;8334654;28;20673;-67
2022/08/04 18:43:17;;;;;;;2.38;2.15;;;;;33.30;96155.00;;;;8346730;28;20225;-72
2022/08/04 18:47:32;;;;;;;2.70;2.55;;;;;32.90;96154.00;;;;8336290;28;20931;-71
2022/08/04 18:51:56;;;;;;;4.82;2.20;;;;;32.50;96164.00;;;;8339707;28;20235;-69
2022/08/04 18:56:04;;;;;;;3.78;2.17;;;;;32.20;96163.00;;;;8333547;28;20225;-69
2022/08/04 19:00:18;;;;;;;2.53;2.30;;;;;31.90;96166.00;;;;8335294;28;20225;-73
2022/08/04 19:04:22;;;;;;;4.03;2.40;;;;;31.60;96163.00;;;;8330753;28;20232;-73
2022/08/04 19:08:45;;;;;;;2.85;2.15;;;;;31.20;96171.00;;;;8328598;28;20243;-76
2022/08/04 19:12:48;;;;;;;4.20;2.30;;;;;30.90;96169.00;;;;8328330;28;21676;-76
2022/08/04 19:16:54;;;;;;;2.53;2.33;;;;;30.50;96168.00;;;;8341708;28;20217;-75
2022/08/04 19:20:59;;;;;;;3.13;2.33;;;;;30.00;96170.00;;;;8333558;28;20303;-74
2022/08/04 19:25:09;;;;;;;5.13;2.40;;;;;29.60;96174.00;;;;8335571;28;20582;-74
2022/08/04 19:29:14;;;;;;;4.10;2.50;;;;;29.30;96179.00;;;;8341098;28;20228;-74
2022/08/04 19:33:19;;;;;;;5.30;2.50;;;;;29.00;96172.00;;;;8331290;28;20565;-75
2022/08/04 19:37:27;;;;;;;3.55;2.13;;;;;28.70;96183.00;;;;8318900;28;20291;-75
2022/08/04 19:41:50;;;;;;;2.92;2.63;;;;;28.50;96179.00;;;;8328396;28;20968;-73
2022/08/04 19:46:09;;;;;;;4.13;2.42;;;;;28.40;96187.00;;;;8332695;28;20232;-74
2022/08/04 19:50:16;;;;;;;2.80;2.40;;;;;28.20;96178.00;;;;8325647;28;20287;-75
2022/08/04 19:54:19;;;;;;;5.85;2.65;;;;;28.00;96184.00;;;;8327782;28;20268;-72
2022/08/04 19:58:29;;;;;;;3.88;2.45;;;;;27.80;96185.00;;;;8328305;28;20800;-76
2022/08/04 20:02:33;;;;;;;3.30;2.50;;;;;27.70;96190.00;;;;8341078;28;20224;-72
2022/08/04 20:06:38;;;;;;;4.75;2.40;;;;;27.40;96189.00;;;;8345094;28;20289;-73
2022/08/04 20:10:42;;;;;;;6.20;2.45;;;;;27.20;96191.00;;;;8336237;28;20225;-71
2022/08/04 20:14:54;;;;;;;2.35;2.25;;;;;27.10;96197.00;;;;8337751;28;20236;-73
2022/08/04 20:18:58;;;;;;;2.55;2.35;;;;;26.90;96189.00;;;;8335849;28;20220;-73
2022/08/04 20:23:07;;;;;;;3.33;2.50;;;;;26.80;96192.00;;;;8329851;28;20641;-73
2022/08/04 20:27:13;;;;;;;5.28;3.17;;;;;26.60;96188.00;;;;8334617;28;20347;-73
2022/08/04 20:31:18;;;;;;;3.38;2.40;;;;;26.40;96184.00;;;;8336315;28;20225;-72
2022/08/04 20:35:24;;;;;;;2.60;2.38;;;;;26.20;96190.00;;;;8323143;28;20688;-74
2022/08/04 20:39:30;;;;;;;2.50;2.40;;;;;26.00;96187.00;;;;8335444;28;20220;-73
2022/08/04 20:43:34;;;;;;;3.65;2.65;;;;;25.80;96191.00;;;;8330540;28;20690;-73
2022/08/04 20:47:40;;;;;;;2.60;2.40;;;;;25.60;96189.00;;;;8328581;28;20818;-75
2022/08/04 20:51:45;;;;;;;4.60;2.65;;;;;25.40;96190.00;;;;8340224;28;20217;-76
2022/08/04 20:55:53;;;;;;;2.65;2.45;;;;;25.20;96188.00;;;;8334280;28;20332;-76
2022/08/04 20:59:58;;;;;;;3.13;2.35;;;;;25.10;96185.00;;;;8341909;28;20248;-75
2022/08/04 21:08:30;;;;;;;3.67;2.78;;;;;24.90;96187.00;;;;8337225;28;20232;-75
2022/08/04 21:12:36;;;;;;;3.40;2.72;;;;;24.80;96182.00;;;;8339413;28;20225;-74
2022/08/04 21:16:39;;;;;;;5.57;2.90;;;;;24.70;96183.00;;;;8339337;28;20232;-72
2022/08/04 21:20:57;;;;;;;3.20;2.90;;;;;24.60;96184.00;;;;8336494;28;20235;-73